createdAt,value
2018-04-02T00:01:38.404Z,6.40
2018-04-02T00:04:10.920Z,6.30
2018-04-02T00:06:43.433Z,6.20
2018-04-02T00:09:15.783Z,6.20
2018-04-02T00:11:48.577Z,6.30
2018-04-02T00:14:21.072Z,6.30
2018-04-02T00:16:53.596Z,6.20
2018-04-02T00:19:26.044Z,6.30
2018-04-02T00:21:58.448Z,6.20
2018-04-02T00:24:30.897Z,6.00
2018-04-02T00:27:03.507Z,6.00
2018-04-02T00:29:35.950Z,5.80
2018-04-02T00:32:09.024Z,5.80
2018-04-02T00:34:41.419Z,5.80
2018-04-02T00:37:13.900Z,5.70
2018-04-02T00:39:46.423Z,5.60
2018-04-02T00:42:19.050Z,5.60
2018-04-02T00:44:51.644Z,5.60
2018-04-02T00:47:25.040Z,5.70
2018-04-02T00:49:57.551Z,5.70
2018-04-02T00:52:30.956Z,5.60
2018-04-02T00:55:03.376Z,5.60
2018-04-02T00:57:37.377Z,5.60
2018-04-02T01:00:11.036Z,5.70
2018-04-02T01:02:43.428Z,5.70
2018-04-02T01:05:16.038Z,5.70
2018-04-02T01:07:48.791Z,5.60
2018-04-02T01:10:21.952Z,5.40
2018-04-02T01:12:54.468Z,5.40
2018-04-02T01:15:26.926Z,5.30
2018-04-02T01:17:59.456Z,5.30
2018-04-02T01:20:32.572Z,5.10
2018-04-02T01:23:04.964Z,5.10
2018-04-02T01:25:37.338Z,5.00
2018-04-02T01:28:10.559Z,4.80
2018-04-02T01:30:44.120Z,4.80
2018-04-02T01:33:16.627Z,4.70
2018-04-02T01:35:48.962Z,4.60
2018-04-02T01:38:21.813Z,4.50
2018-04-02T01:40:55.123Z,4.50
2018-04-02T01:43:27.533Z,4.50
2018-04-02T01:45:59.863Z,4.40
2018-04-02T01:48:33.192Z,4.40
2018-04-02T01:51:05.653Z,4.30
2018-04-02T01:53:39.179Z,4.30
2018-04-02T01:56:12.273Z,4.10
2018-04-02T01:58:44.698Z,4.10
2018-04-02T02:01:17.226Z,4.00
2018-04-02T02:03:50.551Z,3.90
2018-04-02T02:06:23.879Z,3.90
2018-04-02T02:08:57.231Z,3.90
2018-04-02T02:11:29.529Z,3.90
2018-04-02T02:14:02.168Z,3.90
2018-04-02T02:16:35.293Z,3.80
2018-04-02T02:19:07.664Z,3.80
2018-04-02T02:21:40.148Z,3.70
2018-04-02T02:24:12.692Z,3.70
2018-04-02T02:26:45.124Z,3.60
2018-04-02T02:29:19.934Z,3.50
2018-04-02T02:31:52.424Z,3.50
2018-04-02T02:34:25.149Z,3.40
2018-04-02T02:36:57.593Z,3.40
2018-04-02T02:39:30.025Z,3.30
2018-04-02T02:42:02.637Z,3.30
2018-04-02T02:44:35.225Z,3.40
2018-04-02T02:47:07.580Z,3.30
2018-04-02T02:49:40.060Z,3.30
2018-04-02T02:52:13.156Z,3.20
2018-04-02T02:54:45.688Z,3.20
2018-04-02T02:57:18.173Z,3.20
2018-04-02T02:59:51.555Z,3.20
2018-04-02T03:02:24.028Z,3.20
2018-04-02T03:04:56.616Z,3.10
2018-04-02T03:07:29.033Z,3.10
2018-04-02T03:10:01.423Z,3.10
2018-04-02T03:12:33.973Z,3.00
2018-04-02T03:15:07.291Z,2.70
2018-04-02T03:17:40.788Z,2.70
2018-04-02T03:20:14.311Z,2.50
2018-04-02T03:22:47.391Z,2.50
2018-04-02T03:25:19.849Z,2.50
2018-04-02T03:27:52.248Z,2.50
2018-04-02T03:30:24.782Z,2.60
2018-04-02T03:32:57.294Z,2.60
2018-04-02T03:35:29.791Z,2.60
2018-04-02T03:38:02.137Z,2.70
2018-04-02T03:40:34.584Z,2.80
2018-04-02T03:43:07.199Z,2.60
2018-04-02T03:45:39.732Z,2.50
2018-04-02T03:48:12.896Z,2.40
2018-04-02T03:50:46.257Z,2.30
2018-04-02T03:53:18.728Z,2.30
2018-04-02T03:55:51.188Z,2.30
2018-04-02T03:58:23.582Z,2.30
2018-04-02T04:00:56.172Z,2.30
2018-04-02T04:03:28.788Z,2.30
2018-04-02T04:06:01.530Z,2.30
2018-04-02T04:08:35.061Z,2.30
2018-04-02T04:11:07.737Z,2.20
2018-04-02T04:13:40.224Z,2.20
2018-04-02T04:16:12.639Z,2.20
2018-04-02T04:18:45.015Z,2.20
2018-04-02T04:21:17.520Z,2.20
2018-04-02T04:23:49.837Z,2.20
2018-04-02T04:26:22.204Z,2.20
2018-04-02T04:28:54.773Z,2.00
2018-04-02T04:31:27.135Z,2.00
2018-04-02T04:33:59.534Z,2.00
2018-04-02T04:36:31.921Z,2.00
2018-04-02T04:39:05.203Z,1.90
2018-04-02T04:41:38.032Z,1.90
2018-04-02T04:44:14.181Z,2.00
2018-04-02T04:46:46.891Z,2.00
2018-04-02T04:49:19.951Z,2.00
2018-04-02T04:51:53.088Z,2.10
2018-04-02T04:54:27.195Z,2.10
2018-04-02T04:57:00.505Z,2.00
2018-04-02T04:59:33.054Z,2.00
2018-04-02T05:02:13.650Z,1.90
2018-04-02T05:04:46.540Z,1.90
2018-04-02T05:07:19.336Z,1.80
2018-04-02T05:09:51.781Z,1.80
2018-04-02T05:12:25.004Z,1.80
2018-04-02T05:14:57.504Z,1.80
2018-04-02T05:17:30.088Z,1.80
2018-04-02T05:20:02.523Z,1.80
2018-04-02T05:22:34.992Z,1.80
2018-04-02T05:25:07.453Z,1.80
2018-04-02T05:27:40.505Z,1.70
2018-04-02T05:30:13.004Z,1.70
2018-04-02T05:32:45.440Z,1.80
2018-04-02T05:35:18.096Z,1.90
2018-04-02T05:37:50.520Z,2.00
2018-04-02T05:40:23.085Z,2.10
2018-04-02T05:42:55.464Z,2.20
2018-04-02T05:45:28.657Z,2.40
2018-04-02T05:48:02.135Z,2.30
2018-04-02T05:50:34.685Z,2.40
2018-04-02T05:53:07.098Z,2.30
2018-04-02T05:55:39.711Z,2.40
2018-04-02T05:58:12.124Z,2.50
2018-04-02T06:00:44.675Z,2.70
2018-04-02T06:03:17.334Z,2.90
2018-04-02T06:05:50.872Z,3.00
2018-04-02T06:08:23.996Z,3.10
2018-04-02T06:10:56.642Z,3.10
2018-04-02T06:13:30.121Z,3.20
2018-04-02T06:16:02.627Z,3.20
2018-04-02T06:18:35.009Z,3.40
2018-04-02T06:21:08.180Z,3.80
2018-04-02T06:23:41.710Z,4.10
2018-04-02T06:26:14.276Z,4.10
2018-04-02T06:28:46.907Z,4.30
2018-04-02T06:31:19.377Z,4.40
2018-04-02T06:33:51.892Z,4.60
2018-04-02T06:36:24.266Z,4.50
2018-04-02T06:38:57.710Z,4.90
2018-04-02T06:41:30.156Z,4.90
2018-04-02T06:44:02.684Z,5.20
2018-04-02T06:46:35.211Z,5.50
2018-04-02T06:49:07.533Z,5.70
2018-04-02T06:51:41.421Z,6.10
2018-04-02T06:54:14.941Z,6.40
2018-04-02T06:56:48.484Z,6.50
2018-04-02T06:59:20.937Z,6.60
2018-04-02T07:01:53.538Z,6.50
2018-04-02T07:04:26.123Z,6.60
2018-04-02T07:06:58.691Z,6.90
2018-04-02T07:09:31.395Z,7.00
2018-04-02T07:12:04.556Z,7.30
2018-04-02T07:14:37.103Z,7.30
2018-04-02T07:17:10.388Z,7.70
2018-04-02T07:19:42.964Z,7.70
2018-04-02T07:22:15.600Z,7.90
2018-04-02T07:24:48.096Z,7.90
2018-04-02T07:27:20.383Z,7.90
2018-04-02T07:29:54.116Z,8.00
2018-04-02T07:32:26.578Z,8.00
2018-04-02T07:34:59.586Z,7.90
2018-04-02T07:37:32.056Z,8.10
2018-04-02T07:40:05.731Z,8.20
2018-04-02T07:42:38.048Z,8.10
2018-04-02T07:45:12.209Z,8.40
2018-04-02T07:47:45.553Z,8.80
2018-04-02T07:50:18.425Z,8.80
2018-04-02T07:52:51.155Z,9.10
2018-04-02T07:55:23.832Z,9.10
2018-04-02T07:57:57.372Z,9.20
2018-04-02T08:00:30.652Z,9.30
2018-04-02T08:03:03.188Z,9.30
2018-04-02T08:05:35.711Z,9.20
2018-04-02T08:08:09.169Z,9.30
2018-04-02T08:10:42.504Z,9.00
2018-04-02T08:13:15.048Z,8.70
2018-04-02T08:15:48.977Z,8.70
2018-04-02T08:18:22.301Z,8.90
2018-04-02T08:20:55.491Z,9.60
2018-04-02T08:23:29.984Z,9.60
2018-04-02T08:26:03.615Z,10.00
2018-04-02T08:28:36.180Z,10.40
2018-04-02T08:31:08.716Z,10.20
2018-04-02T08:33:43.137Z,9.40
2018-04-02T08:36:16.713Z,9.40
2018-04-02T08:38:53.605Z,9.50
2018-04-02T08:41:26.106Z,9.40
2018-04-02T08:43:58.705Z,9.40
2018-04-02T08:46:31.040Z,9.40
2018-04-02T08:49:05.378Z,9.40
2018-04-02T08:51:38.063Z,9.50
2018-04-02T08:54:10.880Z,9.80
2018-04-02T08:56:43.392Z,10.00
2018-04-02T08:59:15.925Z,10.30
2018-04-02T09:01:48.355Z,10.40
2018-04-02T09:04:20.682Z,10.30
2018-04-02T09:06:53.135Z,10.30
2018-04-02T09:09:26.488Z,10.50
2018-04-02T09:11:59.457Z,10.60
2018-04-02T09:14:31.976Z,10.60
2018-04-02T09:17:05.425Z,11.00
2018-04-02T09:19:37.791Z,10.90
2018-04-02T09:22:10.524Z,11.00
2018-04-02T09:24:43.030Z,11.20
2018-04-02T09:27:16.424Z,11.20
2018-04-02T09:29:49.851Z,11.20
2018-04-02T09:32:22.273Z,11.50
2018-04-02T09:34:54.796Z,11.80
2018-04-02T09:37:31.128Z,11.90
2018-04-02T09:40:04.484Z,12.20
2018-04-02T09:42:36.817Z,12.50
2018-04-02T09:45:09.552Z,12.80
2018-04-02T09:47:42.139Z,12.50
2018-04-02T09:50:14.619Z,12.50
2018-04-02T09:52:47.768Z,12.60
2018-04-02T09:55:22.536Z,12.80
2018-04-02T09:57:55.450Z,12.70
2018-04-02T10:00:32.908Z,12.80
2018-04-02T10:03:05.385Z,12.80
2018-04-02T10:05:37.772Z,12.50
2018-04-02T10:08:10.441Z,12.60
2018-04-02T10:10:44.448Z,13.20
2018-04-02T10:13:17.160Z,13.20
2018-04-02T10:15:49.551Z,13.40
2018-04-02T10:18:23.093Z,13.90
2018-04-02T10:20:55.543Z,13.90
2018-04-02T10:23:28.166Z,14.40
2018-04-02T10:26:00.544Z,14.20
2018-04-02T10:28:33.007Z,13.80
2018-04-02T10:31:05.549Z,13.80
2018-04-02T10:33:38.004Z,13.60
2018-04-02T10:36:10.280Z,13.30
2018-04-02T10:38:43.191Z,13.20
2018-04-02T10:41:15.735Z,13.60
2018-04-02T10:43:48.207Z,13.40
2018-04-02T10:46:20.624Z,13.40
2018-04-02T10:48:53.858Z,13.80
2018-04-02T10:51:27.173Z,13.90
2018-04-02T10:53:59.962Z,13.90
2018-04-02T10:56:32.515Z,14.20
2018-04-02T10:59:04.949Z,14.70
2018-04-02T11:01:37.324Z,14.90
2018-04-02T11:04:11.141Z,14.80
2018-04-02T11:06:44.396Z,15.20
2018-04-02T11:09:18.838Z,15.50
2018-04-02T11:11:51.137Z,15.50
2018-04-02T11:14:23.668Z,15.70
2018-04-02T11:16:56.450Z,15.80
2018-04-02T11:19:28.961Z,15.80
2018-04-02T11:22:01.421Z,15.50
2018-04-02T11:24:33.932Z,15.50
2018-04-02T11:27:06.235Z,15.70
2018-04-02T11:29:39.349Z,15.70
2018-04-02T11:32:11.902Z,15.70
2018-04-02T11:34:44.316Z,15.30
2018-04-02T11:37:16.627Z,15.50
2018-04-02T11:39:49.121Z,15.70
2018-04-02T11:42:21.701Z,15.60
2018-04-02T11:44:54.796Z,15.70
2018-04-02T11:47:27.298Z,15.60
2018-04-02T11:49:59.863Z,15.90
2018-04-02T11:52:32.264Z,15.90
2018-04-02T11:55:04.916Z,15.90
2018-04-02T11:57:37.272Z,16.00
2018-04-02T12:00:10.568Z,16.10
2018-04-02T12:02:42.836Z,16.10
2018-04-02T12:05:15.336Z,16.10
2018-04-02T12:07:47.626Z,16.20
2018-04-02T12:10:20.172Z,16.30
2018-04-02T12:12:52.561Z,16.60
2018-04-02T12:15:25.676Z,16.10
2018-04-02T12:17:58.079Z,16.00
2018-04-02T12:20:30.501Z,16.10
2018-04-02T12:23:03.537Z,15.90
2018-04-02T12:25:36.697Z,16.00
2018-04-02T12:28:09.960Z,16.00
2018-04-02T12:30:42.492Z,16.00
2018-04-02T12:33:17.127Z,16.00
2018-04-02T12:35:49.959Z,16.00
2018-04-02T12:38:22.450Z,16.10
2018-04-02T12:40:54.942Z,16.20
2018-04-02T12:43:27.313Z,16.30
2018-04-02T12:45:59.932Z,16.40
2018-04-02T12:48:32.468Z,16.70
2018-04-02T12:51:05.002Z,16.60
2018-04-02T12:53:37.377Z,16.50
2018-04-02T12:56:10.700Z,16.40
2018-04-02T12:58:43.220Z,16.40
2018-04-02T13:01:15.755Z,16.40
2018-04-02T13:03:48.200Z,16.40
2018-04-02T13:06:20.940Z,16.20
2018-04-02T13:08:54.116Z,16.70
2018-04-02T13:11:26.552Z,16.70
2018-04-02T13:13:59.805Z,16.60
2018-04-02T13:16:34.057Z,16.50
2018-04-02T13:19:07.260Z,16.60
2018-04-02T13:21:39.679Z,16.50
2018-04-02T13:24:12.229Z,16.70
2018-04-02T13:26:44.625Z,17.00
2018-04-02T13:29:17.741Z,17.60
2018-04-02T13:31:50.253Z,17.60
2018-04-02T13:34:23.383Z,17.70
2018-04-02T13:36:56.119Z,17.70
2018-04-02T13:39:28.635Z,18.00
2018-04-02T13:42:01.127Z,18.10
2018-04-02T13:44:33.661Z,18.00
2018-04-02T13:47:06.068Z,18.20
2018-04-02T13:49:39.830Z,17.80
2018-04-02T13:52:13.116Z,18.00
2018-04-02T13:54:45.539Z,17.90
2018-04-02T13:57:18.089Z,18.20
2018-04-02T13:59:50.787Z,18.00
2018-04-02T14:02:23.280Z,18.10
2018-04-02T14:05:04.461Z,17.80
2018-04-02T14:07:39.108Z,17.90
2018-04-02T14:10:21.450Z,18.00
2018-04-02T14:12:57.840Z,17.70
2018-04-02T14:15:30.249Z,17.00
2018-04-02T14:18:02.845Z,17.10
2018-04-02T14:20:35.568Z,17.20
2018-04-02T14:23:09.269Z,17.10
2018-04-02T14:25:42.660Z,16.60
2018-04-02T14:28:15.251Z,16.00
2018-04-02T14:30:48.672Z,16.00
2018-04-02T14:33:21.233Z,16.10
2018-04-02T14:35:57.670Z,16.20
2018-04-02T14:38:30.185Z,16.60
2018-04-02T14:41:04.412Z,16.30
2018-04-02T14:43:39.208Z,16.30
2018-04-02T14:46:12.783Z,16.30
2018-04-02T14:48:45.842Z,16.30
2018-04-02T14:51:21.248Z,16.10
2018-04-02T14:53:53.601Z,15.70
2018-04-02T14:56:26.140Z,15.70
2018-04-02T14:58:58.590Z,15.40
2018-04-02T15:01:31.204Z,15.40
2018-04-02T15:04:03.946Z,15.50
2018-04-02T15:06:36.467Z,15.20
2018-04-02T15:09:08.836Z,15.40
2018-04-02T15:11:41.144Z,15.80
2018-04-02T15:14:13.563Z,15.70
2018-04-02T15:16:45.870Z,15.80
2018-04-02T15:19:18.361Z,15.70
2018-04-02T15:21:50.699Z,15.70
2018-04-02T15:24:24.015Z,15.00
2018-04-02T15:26:56.532Z,15.00
2018-04-02T15:29:28.896Z,15.20
2018-04-02T15:32:02.201Z,15.50
2018-04-02T15:34:34.776Z,15.50
2018-04-02T15:37:07.365Z,15.20
2018-04-02T15:39:39.913Z,15.00
2018-04-02T15:42:16.961Z,15.00
2018-04-02T15:44:49.545Z,15.00
2018-04-02T15:47:22.804Z,14.90
2018-04-02T15:49:55.282Z,14.90
2018-04-02T15:52:27.789Z,14.70
2018-04-02T15:55:00.728Z,14.70
2018-04-02T15:57:33.057Z,14.90
2018-04-02T16:00:05.638Z,15.00
2018-04-02T16:02:38.283Z,15.30
2018-04-02T16:05:10.773Z,15.00
2018-04-02T16:07:44.049Z,14.80
2018-04-02T16:10:17.205Z,15.00
2018-04-02T16:12:49.679Z,14.90
2018-04-02T16:15:22.440Z,15.30
2018-04-02T16:17:55.417Z,15.60
2018-04-02T16:20:28.671Z,15.00
2018-04-02T16:23:02.214Z,14.80
2018-04-02T16:25:34.928Z,14.80
2018-04-02T16:28:07.471Z,14.70
2018-04-02T16:30:40.000Z,14.60
2018-04-02T16:33:12.676Z,14.50
2018-04-02T16:35:45.216Z,14.60
2018-04-02T16:38:17.784Z,14.50
2018-04-02T16:40:50.185Z,14.40
2018-04-02T16:43:22.812Z,14.30
2018-04-02T16:45:55.917Z,14.30
2018-04-02T16:48:29.035Z,14.30
2018-04-02T16:51:02.426Z,14.30
2018-04-02T16:53:42.791Z,14.20
2018-04-02T16:56:15.112Z,14.10
2018-04-02T16:58:48.572Z,14.00
2018-04-02T17:01:22.230Z,13.90
2018-04-02T17:03:55.292Z,13.80
2018-04-02T17:06:28.607Z,13.80
2018-04-02T17:09:01.864Z,13.70
2018-04-02T17:11:34.316Z,13.70
2018-04-02T17:14:11.630Z,13.90
2018-04-02T17:16:44.027Z,13.90
2018-04-02T17:19:16.468Z,14.10
2018-04-02T17:21:49.709Z,13.60
2018-04-02T17:24:28.018Z,13.60
2018-04-02T17:27:09.674Z,13.60
2018-04-02T17:29:42.352Z,13.70
2018-04-02T17:32:15.864Z,13.70
2018-04-02T17:34:48.918Z,13.50
2018-04-02T17:37:21.332Z,13.50
2018-04-02T17:39:53.741Z,13.50
2018-04-02T17:42:26.272Z,13.40
2018-04-02T17:45:00.183Z,13.20
2018-04-02T17:47:32.874Z,13.00
2018-04-02T17:50:05.160Z,12.80
2018-04-02T17:52:37.664Z,12.70
2018-04-02T17:55:10.147Z,12.50
2018-04-02T17:57:42.820Z,12.40
2018-04-02T18:00:15.282Z,12.20
2018-04-02T18:02:47.799Z,12.10
2018-04-02T18:05:21.624Z,12.00
2018-04-02T18:07:55.431Z,11.90
2018-04-02T18:10:27.919Z,11.90
2018-04-02T18:13:01.513Z,11.90
2018-04-02T18:15:33.888Z,11.80
2018-04-02T18:18:06.517Z,11.80
2018-04-02T18:20:38.925Z,11.90
2018-04-02T18:23:11.497Z,11.90
2018-04-02T18:25:43.864Z,11.90
2018-04-02T18:28:16.260Z,11.60
2018-04-02T18:30:48.656Z,11.30
2018-04-02T18:33:21.212Z,11.30
2018-04-02T18:35:54.563Z,11.30
2018-04-02T18:38:27.166Z,11.20
2018-04-02T18:40:59.628Z,11.50
2018-04-02T18:43:32.272Z,11.60
2018-04-02T18:46:04.558Z,11.60
2018-04-02T18:48:37.045Z,11.60
2018-04-02T18:51:10.288Z,11.60
2018-04-02T18:53:42.763Z,11.60
2018-04-02T18:56:15.877Z,11.50
2018-04-02T18:58:48.282Z,11.40
2018-04-02T19:01:21.320Z,11.60
2018-04-02T19:03:54.684Z,11.60
2018-04-02T19:06:27.408Z,11.50
2018-04-02T19:09:09.466Z,11.50
2018-04-02T19:11:49.344Z,11.40
2018-04-02T19:14:21.792Z,11.50
2018-04-02T19:16:54.173Z,11.40
2018-04-02T19:19:28.462Z,11.40
2018-04-02T19:22:02.181Z,11.40
2018-04-02T19:24:35.284Z,11.40
2018-04-02T19:27:10.497Z,11.50
2018-04-02T19:29:43.105Z,11.40
2018-04-02T19:32:16.212Z,11.10
2018-04-02T19:35:05.888Z,11.10
2018-04-02T19:37:38.344Z,11.10
2018-04-02T19:40:10.857Z,11.10
2018-04-02T19:42:43.175Z,11.10
2018-04-02T19:45:16.121Z,11.10
2018-04-02T19:47:54.840Z,11.00
2018-04-02T19:50:27.248Z,10.90
2018-04-02T19:53:00.306Z,10.70
2018-04-02T19:55:32.808Z,10.60
2018-04-02T19:58:05.284Z,10.60
2018-04-02T20:00:37.893Z,10.60
2018-04-02T20:03:10.385Z,10.70
2018-04-02T20:05:42.757Z,10.70
2018-04-02T20:08:15.276Z,10.70
2018-04-02T20:10:48.621Z,10.70
2018-04-02T20:13:21.223Z,10.70
2018-04-02T20:16:01.092Z,10.70
2018-04-02T20:18:33.791Z,10.70
2018-04-02T20:21:09.452Z,10.60
2018-04-02T20:23:45.519Z,10.40
2018-04-02T20:26:20.915Z,10.50
2018-04-02T20:28:54.432Z,10.50
2018-04-02T20:31:27.016Z,10.50
2018-04-02T20:33:59.538Z,10.60
2018-04-02T20:36:32.026Z,10.50
2018-04-02T20:39:05.480Z,10.50
2018-04-02T20:41:38.996Z,10.40
2018-04-02T20:44:15.556Z,10.40
2018-04-02T20:46:48.289Z,10.40
2018-04-02T20:49:20.823Z,10.40
2018-04-02T20:51:53.285Z,10.50
2018-04-02T20:54:34.520Z,10.50
2018-04-02T20:57:07.186Z,10.60
2018-04-02T20:59:39.536Z,10.60
2018-04-02T21:02:12.252Z,10.50
2018-04-02T21:04:45.376Z,10.50
2018-04-02T21:07:17.838Z,10.50
2018-04-02T21:09:51.251Z,10.50
2018-04-02T21:12:24.093Z,10.50
2018-04-02T21:14:56.432Z,10.50
2018-04-02T21:17:29.055Z,10.50
2018-04-02T21:20:01.519Z,10.50
2018-04-02T21:22:34.399Z,10.50
2018-04-02T21:25:06.901Z,10.40
2018-04-02T21:27:40.052Z,10.40
2018-04-02T21:30:12.459Z,10.40
2018-04-02T21:32:44.976Z,10.40
2018-04-02T21:35:18.253Z,10.40
2018-04-02T21:37:50.796Z,10.30
2018-04-02T21:40:23.318Z,10.30
2018-04-02T21:42:56.631Z,10.30
2018-04-02T21:45:29.916Z,10.20
2018-04-02T21:48:02.512Z,10.20
2018-04-02T21:50:34.917Z,10.20
2018-04-02T21:53:07.668Z,10.10
2018-04-02T21:55:40.212Z,10.10
2018-04-02T21:58:12.861Z,10.00
2018-04-02T22:00:47.137Z,10.00
2018-04-02T22:03:20.256Z,10.00
2018-04-02T22:05:52.635Z,9.90
2018-04-02T22:08:25.012Z,9.80
2018-04-02T22:11:01.933Z,9.80
2018-04-02T22:13:34.505Z,9.70
2018-04-02T22:16:06.868Z,9.60
2018-04-02T22:18:40.171Z,9.60
2018-04-02T22:21:12.488Z,9.60
2018-04-02T22:23:44.985Z,9.60
2018-04-02T22:26:18.152Z,9.60
2018-04-02T22:28:51.536Z,9.70
2018-04-02T22:31:23.988Z,9.60
2018-04-02T22:33:57.083Z,9.60
2018-04-02T22:36:29.520Z,9.60
2018-04-02T22:39:02.053Z,9.60
2018-04-02T22:41:34.537Z,9.60
2018-04-02T22:44:06.872Z,9.60
2018-04-02T22:46:39.269Z,9.60
2018-04-02T22:49:11.988Z,9.60
2018-04-02T22:51:44.344Z,9.50
2018-04-02T22:54:16.908Z,9.50
2018-04-02T22:56:49.420Z,9.40
2018-04-02T22:59:21.788Z,9.30
2018-04-02T23:01:54.996Z,9.40
2018-04-02T23:04:27.472Z,9.40
2018-04-02T23:06:59.769Z,9.50
2018-04-02T23:09:32.245Z,9.40
2018-04-02T23:12:05.371Z,9.50
2018-04-02T23:14:37.742Z,9.50
2018-04-02T23:17:10.047Z,9.60
2018-04-02T23:19:42.344Z,9.50
2018-04-02T23:22:27.036Z,9.40
2018-04-02T23:24:59.598Z,9.50
2018-04-02T23:27:31.994Z,9.50
2018-04-02T23:30:04.377Z,9.60
2018-04-02T23:32:36.676Z,9.60
2018-04-02T23:35:09.162Z,9.60
2018-04-02T23:37:41.697Z,9.70
2018-04-02T23:40:14.372Z,9.80
2018-04-02T23:42:46.816Z,9.90
2018-04-02T23:45:19.296Z,10.00
2018-04-02T23:47:51.793Z,10.10
2018-04-02T23:50:24.240Z,10.20
2018-04-02T23:52:57.319Z,10.50
2018-04-02T23:55:30.544Z,10.50
2018-04-02T23:58:03.748Z,10.60
